Accueil
METAR-TAF:

METAR-TAF

Aéroports :

Aéroport d'Oslo-Gardermoen

Oslo, Norvège

latitude: 60-12N, longitude: 011-05E, altitude: 208 m

Observation

Le bulletin a été fait il y a 29 minutes, à 21:50 UTC
Vent 3 kt de nord/nord-ouest, variant entre ouest/nord-ouest et nord-est
Température 5°C
Humidité 48%
Pression 1035 hPa
Visibilité 10 km ou plus
pas de nuages en-dessous de 1500 mètres et pas de cumulonimbus.

METAR: ENGM 192150Z 34003KT 290V050 CAVOK 05/M05 Q1035

Heure: 00:19 (22:19 UTC)

Prévision

Prévision valable du 19 à 18 UTC au 20 à 18 UTC
Vent 5 kt de direction variable
Visibilité 10 km ou plus
pas de nuages en-dessous de 1500 mètres et pas de cumulonimbus.

TAF: ENGM 1918/2018 VRB05KT CAVOK

Observations et prévisions météorologiques de plus de 4000 aéroports (messages METAR et TAF).

Les stations disponibles sont représentées par des disques jaunes et rouges sur la carte.

Passer la souris dessus pour voir le nom de la station.

Cliquer dessus pour voir les observations et prévisions météorologiques.

Pour changer de carte: cliquez sur les boutons verts avec une croix noire pour zoomer, sur le bouton vert avec un tiret pour effectuer un zoom arrière, ou sur les flèches vertes pour les cartes adjacentes.


METAR-TAF: